Time;durP1;ratioP1;P1;durP2;ratioP2;P2;SDS_P1;SDS_P2;PMS_P1;PMS_P2;Temp;Humidity;BMP_temperature;BMP_pressure;BME280_temperature;BME280_humidity;BME280_pressure;Samples;Min_cycle;Max_cycle;Signal;HPM_P1;HPM_P2
2022/04/12 00:01:03;;;;;;;123.32;112.03;;;9.90;76.00;;;;;;5001718;28;20046;-83
2022/04/12 00:03:31;;;;;;;121.18;110.18;;;9.90;76.20;;;;;;5018614;28;20062;-83
2022/04/12 00:06:00;;;;;;;121.53;110.45;;;9.80;76.10;;;;;;5001592;28;20124;-83
2022/04/12 00:08:26;;;;;;;122.38;111.00;;;9.80;76.40;;;;;;5018105;28;20057;-83
2022/04/12 00:10:53;;;;;;;122.28;110.97;;;9.70;76.40;;;;;;5018347;28;20500;-83
2022/04/12 00:13:22;;;;;;;122.68;111.45;;;9.70;76.30;;;;;;5001888;28;20054;-83
2022/04/12 00:15:49;;;;;;;122.35;111.18;;;9.70;76.50;;;;;;5002130;28;20058;-83
2022/04/12 00:21:08;;;;;;;119.70;108.75;;;9.60;76.90;;;;;;5007268;28;20054;-84
2022/04/12 00:23:35;;;;;;;120.60;109.50;;;9.60;77.10;;;;;;5001694;28;20532;-83
2022/04/12 00:26:02;;;;;;;121.13;110.03;;;9.60;77.70;;;;;;5018454;28;20046;-83
2022/04/12 00:28:29;;;;;;;121.72;110.32;;;9.60;77.30;;;;;;5017968;28;20149;-83
2022/04/12 00:30:56;;;;;;;120.63;109.53;;;9.70;77.90;;;;;;5001633;28;20078;-83
2022/04/12 00:33:23;;;;;;;122.25;111.05;;;9.70;77.90;;;;;;5017649;28;20049;-83
2022/04/12 00:35:50;;;;;;;121.82;110.72;;;9.70;77.50;;;;;;5017884;28;20050;-83
2022/04/12 00:38:23;;;;;;;121.15;110.15;;;9.60;77.40;;;;;;5001052;28;20105;-83
2022/04/12 00:40:51;;;;;;;121.55;110.40;;;9.60;78.20;;;;;;5017984;28;20050;-83
2022/04/12 00:43:19;;;;;;;119.88;109.07;;;9.60;78.10;;;;;;5001278;28;20504;-83
2022/04/12 00:45:46;;;;;;;120.55;109.57;;;9.60;77.90;;;;;;5001537;28;20089;-83
2022/04/12 00:48:14;;;;;;;121.63;110.30;;;9.60;77.60;;;;;;5017403;28;20053;-83
2022/04/12 00:50:42;;;;;;;121.75;110.75;;;9.50;78.20;;;;;;5017787;28;20136;-83
2022/04/12 00:53:10;;;;;;;120.80;109.90;;;9.50;78.10;;;;;;5018170;28;20104;-83
2022/04/12 00:55:39;;;;;;;120.18;109.25;;;9.60;78.90;;;;;;5017754;28;20054;-83
2022/04/12 00:58:08;;;;;;;120.13;109.32;;;9.60;78.20;;;;;;5000678;28;20162;-83
2022/04/12 01:00:36;;;;;;;120.45;109.55;;;9.60;78.10;;;;;;5017375;28;20120;-83
2022/04/12 01:03:02;;;;;;;120.55;109.35;;;9.60;78.00;;;;;;5001548;28;20061;-83
2022/04/12 01:05:29;;;;;;;119.13;108.43;;;9.50;77.90;;;;;;5017296;28;20053;-83
2022/04/12 01:07:56;;;;;;;121.10;110.00;;;9.50;77.90;;;;;;5000534;28;20050;-83
2022/04/12 01:10:24;;;;;;;121.05;109.95;;;9.40;78.00;;;;;;4999738;28;20152;-83
2022/04/12 01:12:54;;;;;;;120.10;109.30;;;9.40;78.70;;;;;;5001350;28;20066;-83
2022/04/12 01:15:22;;;;;;;118.47;107.60;;;9.40;78.80;;;;;;5017441;28;20241;-83
2022/04/12 01:17:50;;;;;;;118.57;107.97;;;9.40;78.50;;;;;;5000518;28;20128;-83
2022/04/12 01:20:24;;;;;;;122.03;110.72;;;9.30;78.50;;;;;;5000808;28;20508;-83
2022/04/12 01:22:55;;;;;;;120.85;109.85;;;9.30;79.00;;;;;;5017329;28;20082;-83
2022/04/12 01:25:24;;;;;;;119.30;108.63;;;9.30;78.40;;;;;;5000708;28;20045;-83
2022/04/12 01:27:52;;;;;;;118.88;108.13;;;9.20;78.50;;;;;;5017175;28;20050;-83
2022/04/12 01:30:19;;;;;;;119.82;108.43;;;9.20;78.70;;;;;;5017249;28;20054;-83
2022/04/12 01:32:46;;;;;;;119.07;108.20;;;9.20;79.00;;;;;;5016945;28;20519;-83
2022/04/12 01:35:13;;;;;;;118.70;107.93;;;9.20;79.50;;;;;;5017255;28;20148;-83
2022/04/12 01:37:40;;;;;;;118.63;107.80;;;9.10;79.20;;;;;;4999954;28;20050;-83
2022/04/12 01:40:09;;;;;;;120.53;109.35;;;9.10;79.60;;;;;;5016909;28;20066;-83
2022/04/12 01:42:38;;;;;;;118.75;108.07;;;9.10;79.30;;;;;;5000796;28;20050;-83
2022/04/12 01:45:06;;;;;;;119.07;108.18;;;9.10;79.20;;;;;;5017064;28;20496;-83
2022/04/12 01:47:33;;;;;;;119.93;108.95;;;9.00;79.50;;;;;;5016473;28;20046;-83
2022/04/12 01:50:00;;;;;;;118.88;108.07;;;9.00;79.60;;;;;;5016588;28;20656;-83
2022/04/12 01:52:27;;;;;;;120.78;109.78;;;9.00;80.20;;;;;;5016757;28;20054;-83
2022/04/12 01:54:54;;;;;;;120.68;109.80;;;9.10;79.80;;;;;;5017051;28;20112;-83
2022/04/12 01:57:21;;;;;;;120.50;109.40;;;9.10;80.10;;;;;;5016477;28;20085;-83
2022/04/12 01:59:49;;;;;;;119.13;108.30;;;9.10;79.30;;;;;;5000711;28;20144;-83
2022/04/12 02:02:16;;;;;;;119.15;108.25;;;9.10;79.10;;;;;;5016549;28;20060;-83
2022/04/12 02:04:43;;;;;;;119.97;108.88;;;9.00;79.20;;;;;;5016860;28;20061;-83
2022/04/12 02:07:10;;;;;;;120.80;109.80;;;8.90;79.20;;;;;;5016227;28;20060;-83
2022/04/12 02:09:37;;;;;;;;;;;8.90;79.60;;;;;;5000525;28;20060;-83
2022/04/12 02:12:05;;;;;;;119.05;107.80;;;8.80;80.60;;;;;;5017141;28;20371;-83
2022/04/12 02:14:32;;;;;;;118.88;108.03;;;8.70;80.00;;;;;;5016073;28;20053;-82
2022/04/12 02:17:00;;;;;;;121.50;110.30;;;8.70;80.30;;;;;;5015641;28;20053;-82
2022/04/12 02:19:27;;;;;;;119.25;108.38;;;8.60;80.90;;;;;;5015464;28;20064;-83
2022/04/12 02:21:53;;;;;;;;;;;8.60;80.90;;;;;;4999925;28;20057;-83
2022/04/12 02:24:20;;;;;;;;;;;8.60;81.40;;;;;;4999915;28;19926;-83
2022/04/12 02:26:48;;;;;;;118.72;107.72;;;8.50;82.20;;;;;;5016604;28;19937;-83
2022/04/12 02:29:15;;;;;;;117.50;106.75;;;8.50;81.30;;;;;;5016023;28;20053;-82
2022/04/12 02:31:42;;;;;;;;;;;8.50;81.50;;;;;;5016666;28;20058;-82
2022/04/12 02:34:11;;;;;;;116.82;106.03;;;8.50;83.40;;;;;;5016416;28;19976;-82
2022/04/12 02:36:37;;;;;;;118.07;107.07;;;8.50;81.80;;;;;;4999593;28;20046;-82
2022/04/12 02:39:05;;;;;;;118.32;107.25;;;8.50;81.70;;;;;;5015757;28;20054;-82
2022/04/12 02:41:32;;;;;;;119.40;108.47;;;8.40;81.60;;;;;;4999619;28;20100;-83
2022/04/12 02:43:59;;;;;;;118.63;107.68;;;8.50;82.00;;;;;;5016286;28;20124;-83
2022/04/12 02:46:26;;;;;;;117.70;106.85;;;8.50;81.90;;;;;;4999417;28;20113;-82
2022/04/12 02:48:53;;;;;;;118.32;107.38;;;8.50;81.80;;;;;;5015862;28;20061;-82
2022/04/12 02:51:21;;;;;;;118.68;107.57;;;8.50;81.80;;;;;;4999527;28;20054;-83
2022/04/12 02:53:48;;;;;;;117.05;106.25;;;8.60;81.80;;;;;;5016057;28;20761;-82
2022/04/12 02:56:15;;;;;;;118.25;107.35;;;8.60;81.90;;;;;;4999309;28;20042;-83
2022/04/12 02:58:42;;;;;;;117.55;106.50;;;8.70;81.70;;;;;;5015441;28;20046;-83
2022/04/12 03:01:09;;;;;;;117.70;106.80;;;8.70;81.70;;;;;;4999322;28;20073;-82
2022/04/12 03:03:36;;;;;;;116.95;106.15;;;8.70;81.50;;;;;;5015723;28;20069;-83
2022/04/12 03:06:03;;;;;;;117.95;106.78;;;8.80;81.30;;;;;;4999465;28;20071;-83
2022/04/12 03:08:31;;;;;;;117.40;106.70;;;8.80;80.90;;;;;;5015610;28;20189;-83
2022/04/12 03:10:58;;;;;;;117.80;107.00;;;8.70;80.90;;;;;;5016194;28;20535;-83
2022/04/12 03:13:25;;;;;;;117.63;106.82;;;8.70;81.00;;;;;;5015096;28;20050;-82
2022/04/12 03:15:52;;;;;;;117.40;106.70;;;8.70;81.00;;;;;;5015527;28;20155;-83
2022/04/12 03:18:19;;;;;;;118.38;107.38;;;8.70;80.80;;;;;;4998950;28;20128;-82
2022/04/12 03:20:48;;;;;;;117.07;106.40;;;8.60;80.80;;;;;;5015693;28;20050;-83
2022/04/12 03:23:15;;;;;;;116.28;105.57;;;8.50;81.10;;;;;;4999039;28;20523;-82
2022/04/12 03:25:44;;;;;;;118.05;107.15;;;8.40;81.60;;;;;;4999116;28;20137;-83
2022/04/12 03:28:11;;;;;;;117.68;106.78;;;8.40;82.20;;;;;;5015080;28;20053;-82
2022/04/12 03:30:38;;;;;;;;;;;8.30;82.50;;;;;;5016036;28;20058;-82
2022/04/12 03:33:05;;;;;;;117.70;106.63;;;8.30;83.00;;;;;;4998449;28;19964;-83
2022/04/12 03:35:32;;;;;;;;;;;8.30;82.70;;;;;;5032042;28;20046;-82
2022/04/12 03:38:01;;;;;;;117.72;106.63;;;8.30;83.40;;;;;;4998818;28;19925;-83
2022/04/12 03:40:30;;;;;;;119.28;108.47;;;8.30;82.70;;;;;;5031871;28;20058;-83
2022/04/12 03:43:01;;;;;;;118.07;107.05;;;8.30;82.90;;;;;;4998977;28;20046;-83
2022/04/12 03:45:28;;;;;;;117.05;106.45;;;8.30;83.10;;;;;;5015471;28;20463;-83
2022/04/12 03:47:55;;;;;;;;;;;8.30;83.30;;;;;;4998427;28;20054;-82
2022/04/12 03:50:22;;;;;;;117.53;106.63;;;8.20;83.80;;;;;;5015318;28;19925;-82
2022/04/12 03:52:50;;;;;;;117.13;106.50;;;8.20;83.40;;;;;;5032043;28;20080;-83
2022/04/12 03:55:30;;;;;;;117.93;107.03;;;8.30;83.60;;;;;;4998343;28;20133;-82
2022/04/12 03:57:57;;;;;;;117.15;106.30;;;8.30;83.80;;;;;;4998405;28;20046;-82
2022/04/12 04:00:26;;;;;;;117.20;106.40;;;8.30;83.90;;;;;;5031751;28;20056;-83
2022/04/12 04:02:53;;;;;;;117.38;106.40;;;8.20;84.10;;;;;;4998855;28;20050;-83
2022/04/12 04:05:20;;;;;;;118.75;108.07;;;8.20;84.40;;;;;;5014700;28;20050;-83
2022/04/12 04:07:47;;;;;;;117.57;106.90;;;8.30;84.20;;;;;;5014502;28;20057;-83
2022/04/12 04:10:14;;;;;;;117.80;107.10;;;8.20;84.30;;;;;;5031600;28;20147;-83
2022/04/12 04:12:40;;;;;;;;;;;8.20;84.60;;;;;;4998954;28;20097;-82
2022/04/12 04:15:12;;;;;;;117.13;106.00;;;8.20;84.90;;;;;;5015232;28;19929;-82
2022/04/12 04:17:41;;;;;;;117.30;106.53;;;8.20;84.90;;;;;;5014591;28;20104;-82
2022/04/12 04:20:10;;;;;;;119.18;108.30;;;8.10;84.90;;;;;;4997943;28;20053;-82
2022/04/12 04:22:37;;;;;;;117.07;106.25;;;8.20;85.20;;;;;;5031510;28;20053;-82
2022/04/12 04:25:05;;;;;;;117.07;106.45;;;8.20;85.50;;;;;;5014606;28;20050;-82
2022/04/12 04:27:32;;;;;;;118.15;107.18;;;8.20;85.20;;;;;;5014322;28;20053;-82
2022/04/12 04:29:59;;;;;;;117.47;106.57;;;8.20;85.20;;;;;;4998504;28;20054;-82
2022/04/12 04:32:26;;;;;;;118.65;107.75;;;8.20;85.50;;;;;;5014420;28;20049;-82
2022/04/12 04:34:55;;;;;;;117.82;106.80;;;8.20;85.30;;;;;;5014239;28;20052;-82
2022/04/12 04:37:22;;;;;;;118.28;107.28;;;8.20;85.10;;;;;;5031094;28;20066;-82
2022/04/12 04:39:48;;;;;;;120.03;109.25;;;8.20;85.30;;;;;;5014438;28;20383;-82
2022/04/12 04:42:15;;;;;;;118.70;107.85;;;8.20;85.20;;;;;;5031105;28;20054;-82
2022/04/12 04:44:42;;;;;;;122.40;111.60;;;8.20;85.20;;;;;;5000780;28;20046;-82
2022/04/12 04:47:09;;;;;;;122.07;111.13;;;8.20;85.30;;;;;;5017605;28;20057;-82
2022/04/12 04:49:36;;;;;;;;;;;8.20;85.10;;;;;;5018371;28;20129;-82
2022/04/12 04:52:04;;;;;;;;;;;8.20;84.90;;;;;;5002056;28;19984;-82
2022/04/12 04:54:31;;;;;;;120.55;109.45;;;8.10;85.00;;;;;;5018078;28;19929;-83
2022/04/12 04:56:58;;;;;;;123.25;112.15;;;8.10;84.80;;;;;;5003335;28;20559;-82
2022/04/12 04:59:25;;;;;;;;;;;8.10;84.90;;;;;;5025064;28;20053;-82
2022/04/12 05:01:52;;;;;;;;;;;8.10;85.60;;;;;;5016924;28;20008;-82
2022/04/12 05:04:18;;;;;;;;;;;8.00;85.70;;;;;;5018141;28;20414;-82
2022/04/12 05:06:46;;;;;;;121.60;110.47;;;7.90;86.40;;;;;;5032486;28;19925;-82
2022/04/12 05:09:14;;;;;;;119.32;108.45;;;7.90;85.70;;;;;;5016655;28;20060;-82
2022/04/12 05:11:41;;;;;;;120.32;109.32;;;7.80;85.90;;;;;;5017047;28;20448;-82
2022/04/12 05:14:08;;;;;;;;;;;7.80;86.20;;;;;;5001187;28;20134;-82
2022/04/12 05:16:34;;;;;;;121.35;110.05;;;7.80;86.40;;;;;;5018152;28;19925;-82
2022/04/12 05:19:01;;;;;;;118.88;108.07;;;7.80;86.30;;;;;;5015766;28;20583;-82
2022/04/12 05:21:28;;;;;;;;;;;7.80;86.70;;;;;;5000217;28;20053;-79
2022/04/12 05:23:55;;;;;;;117.13;105.97;;;7.70;88.00;;;;;;5032071;28;19929;-79
2022/04/12 05:26:23;;;;;;;117.07;106.07;;;7.70;87.30;;;;;;5015592;28;20058;-79
2022/04/12 05:29:09;;;;;;;116.65;105.80;;;7.70;87.70;;;;;;5014562;28;20504;-79
2022/04/12 05:31:35;;;;;;;;;;;7.70;88.00;;;;;;5016725;28;20510;-80
2022/04/12 05:34:02;;;;;;;116.88;105.75;;;7.70;89.50;;;;;;5016305;28;19935;-80
2022/04/12 05:36:29;;;;;;;;;;;7.70;88.40;;;;;;5015941;28;20049;-80
2022/04/12 05:38:56;;;;;;;120.38;109.47;;;7.70;90.10;;;;;;4998715;28;20109;-79
2022/04/12 05:41:25;;;;;;;121.50;110.55;;;7.70;89.20;;;;;;5015094;28;20054;-81
2022/04/12 05:43:52;;;;;;;121.10;110.20;;;7.70;89.70;;;;;;4993869;28;20050;-82
2022/04/12 05:46:19;;;;;;;123.32;112.05;;;7.70;90.10;;;;;;4998242;28;20058;-82
2022/04/12 05:48:46;;;;;;;120.88;109.85;;;7.70;90.10;;;;;;5015340;28;20064;-82
2022/04/12 05:51:13;;;;;;;119.82;109.03;;;7.80;90.40;;;;;;5015944;28;20049;-83
2022/04/12 05:53:39;;;;;;;;;;;7.80;90.50;;;;;;4999902;28;20539;-82
2022/04/12 05:56:26;;;;;;;119.47;108.53;;;7.80;91.00;;;;;;5018534;28;19925;-81
2022/04/12 05:58:53;;;;;;;118.90;107.97;;;7.80;90.50;;;;;;5016088;28;20064;-82
2022/04/12 06:01:20;;;;;;;120.05;109.13;;;7.80;90.50;;;;;;5016784;28;20416;-82
2022/04/12 06:03:47;;;;;;;121.63;110.68;;;7.90;90.60;;;;;;5016713;28;20628;-81
2022/04/12 06:06:14;;;;;;;120.53;109.63;;;7.90;90.70;;;;;;5016248;28;20081;-83
2022/04/12 06:08:41;;;;;;;119.75;108.80;;;7.90;90.70;;;;;;5015475;28;20520;-80
2022/04/12 06:11:08;;;;;;;122.68;111.47;;;8.00;90.60;;;;;;5015803;28;20160;-80
2022/04/12 06:13:36;;;;;;;129.65;118.32;;;8.00;90.70;;;;;;5014752;28;20509;-80
2022/04/12 06:16:04;;;;;;;119.20;108.47;;;8.00;90.60;;;;;;5013162;28;20056;-80
2022/04/12 06:18:30;;;;;;;;;;;8.10;90.60;;;;;;5013129;28;20144;-80
2022/04/12 06:20:57;;;;;;;122.50;111.15;;;8.10;90.90;;;;;;5014896;28;19968;-80
2022/04/12 06:23:24;;;;;;;120.95;109.95;;;8.10;90.60;;;;;;5014665;28;20060;-80
2022/04/12 06:25:51;;;;;;;118.68;107.78;;;8.20;90.60;;;;;;5014284;28;20053;-80
2022/04/12 06:28:18;;;;;;;119.47;108.88;;;8.20;90.80;;;;;;5014087;28;20526;-81
2022/04/12 06:30:47;;;;;;;128.93;117.57;;;8.20;90.80;;;;;;5014654;28;20061;-81
2022/04/12 06:33:14;;;;;;;118.88;108.30;;;8.20;90.90;;;;;;5011821;28;20132;-80
2022/04/12 06:35:41;;;;;;;121.97;110.90;;;8.30;90.90;;;;;;4997534;28;20042;-80
2022/04/12 06:38:09;;;;;;;;;;;8.40;90.90;;;;;;5014415;28;20525;-80
2022/04/12 06:40:36;;;;;;;121.55;110.45;;;8.40;91.40;;;;;;5012521;28;20012;-81
2022/04/12 06:43:03;;;;;;;120.95;110.05;;;8.40;90.80;;;;;;4997924;28;20144;-81
2022/04/12 06:45:30;;;;;;;126.07;113.97;;;8.50;90.70;;;;;;5014691;28;20568;-81
2022/04/12 06:48:00;;;;;;;120.93;109.75;;;8.50;90.80;;;;;;5014320;28;20502;-81
2022/04/12 06:50:28;;;;;;;117.90;107.25;;;8.50;90.70;;;;;;5015304;28;20090;-81
2022/04/12 06:52:56;;;;;;;117.25;106.50;;;8.50;90.60;;;;;;4997553;28;20521;-81
2022/04/12 06:55:24;;;;;;;115.68;105.13;;;8.60;90.70;;;;;;5031084;28;20054;-81
2022/04/12 06:57:51;;;;;;;116.03;105.43;;;8.60;90.80;;;;;;4998505;28;20092;-81
2022/04/12 07:00:19;;;;;;;117.72;107.13;;;8.70;90.80;;;;;;5014501;28;20548;-81
2022/04/12 07:02:46;;;;;;;115.93;105.40;;;8.70;90.70;;;;;;4994611;28;20576;-81
2022/04/12 07:05:14;;;;;;;;;;;8.70;90.70;;;;;;5013316;28;20501;-81
2022/04/12 07:07:42;;;;;;;119.72;108.72;;;8.70;90.90;;;;;;5029932;28;20434;-81
2022/04/12 07:10:11;;;;;;;118.90;108.20;;;8.70;90.60;;;;;;5013688;28;20515;-81
2022/04/12 07:12:38;;;;;;;118.07;107.47;;;8.70;90.60;;;;;;5014250;28;20549;-81
2022/04/12 07:15:06;;;;;;;119.93;108.93;;;8.80;90.60;;;;;;5013790;28;20483;-81
2022/04/12 07:17:33;;;;;;;114.90;104.63;;;8.80;90.70;;;;;;5014357;28;20053;-81
2022/04/12 07:20:01;;;;;;;117.18;106.68;;;8.80;90.70;;;;;;5015658;28;20535;-81
2022/04/12 07:22:29;;;;;;;116.10;105.47;;;8.90;90.70;;;;;;5015846;28;20046;-81
2022/04/12 07:24:56;;;;;;;115.20;104.63;;;8.90;90.90;;;;;;5015926;28;20054;-81
2022/04/12 07:27:23;;;;;;;;;;;9.00;90.90;;;;;;5016082;28;20081;-81
2022/04/12 07:29:50;;;;;;;115.82;105.00;;;9.10;91.30;;;;;;5031891;28;20414;-81
2022/04/12 07:32:16;;;;;;;118.07;107.57;;;9.10;91.00;;;;;;5015392;28;20136;-81
2022/04/12 07:34:43;;;;;;;117.43;106.68;;;9.20;91.00;;;;;;5015366;28;20056;-81
2022/04/12 07:37:10;;;;;;;;;;;9.20;91.10;;;;;;5016094;28;20505;-81
2022/04/12 07:39:38;;;;;;;116.32;105.63;;;9.30;91.30;;;;;;4999446;28;19964;-81
2022/04/12 07:42:06;;;;;;;115.10;104.68;;;9.40;91.00;;;;;;4999074;28;20125;-82
2022/04/12 07:44:34;;;;;;;115.97;105.38;;;9.50;91.20;;;;;;4988791;28;20058;-81
2022/04/12 07:47:01;;;;;;;117.45;106.72;;;9.50;90.90;;;;;;5009287;28;20065;-81
2022/04/12 07:49:28;;;;;;;;;;;9.60;90.90;;;;;;5014202;28;20046;-81
2022/04/12 07:51:55;;;;;;;117.85;107.07;;;9.70;91.50;;;;;;5013512;28;19952;-81
2022/04/12 07:54:22;;;;;;;115.85;105.35;;;9.80;91.00;;;;;;4997244;28;20062;-81
2022/04/12 07:56:50;;;;;;;117.45;106.85;;;9.80;90.90;;;;;;5012675;28;20655;-82
2022/04/12 07:59:17;;;;;;;116.82;106.13;;;9.90;90.90;;;;;;4996118;28;20102;-80
2022/04/12 08:01:43;;;;;;;;;;;10.00;91.10;;;;;;5013561;28;20536;-81
2022/04/12 08:04:10;;;;;;;115.25;104.68;;;10.00;91.20;;;;;;5013753;28;19957;-78
2022/04/12 08:06:38;;;;;;;116.30;105.55;;;10.10;90.50;;;;;;4997120;28;20136;-81
2022/04/12 08:09:06;;;;;;;115.93;105.40;;;10.20;90.60;;;;;;5013375;28;20132;-82
2022/04/12 08:11:33;;;;;;;117.22;106.65;;;10.30;90.70;;;;;;5013817;28;20132;-83
2022/04/12 08:14:02;;;;;;;119.10;108.50;;;10.40;90.70;;;;;;4997659;28;20382;-82
2022/04/12 08:16:29;;;;;;;117.60;106.72;;;10.40;90.80;;;;;;4997920;28;20419;-83
2022/04/12 08:18:56;;;;;;;116.80;106.35;;;10.50;90.70;;;;;;5015534;28;20054;-84
2022/04/12 08:21:33;;;;;;;115.63;105.13;;;10.60;90.80;;;;;;4998873;28;20046;-83
2022/04/12 08:24:01;;;;;;;117.18;106.70;;;10.70;90.60;;;;;;5016946;28;20366;-82
2022/04/12 08:26:28;;;;;;;117.07;106.68;;;10.80;90.40;;;;;;5000420;28;20427;-83
2022/04/12 08:28:55;;;;;;;120.00;108.63;;;10.90;90.30;;;;;;5016711;28;20547;-82
2022/04/12 08:31:23;;;;;;;117.00;106.35;;;10.90;90.30;;;;;;5014295;28;20080;-81
2022/04/12 08:33:50;;;;;;;114.90;104.50;;;11.00;90.40;;;;;;5000997;28;20140;-83
2022/04/12 08:36:20;;;;;;;117.38;106.78;;;11.10;90.50;;;;;;5016224;28;20484;-81
2022/04/12 08:38:49;;;;;;;115.32;104.93;;;11.10;90.60;;;;;;5016762;28;20061;-82
2022/04/12 08:41:17;;;;;;;115.15;104.85;;;11.20;90.30;;;;;;5017523;28;20065;-83
2022/04/12 08:43:45;;;;;;;116.40;105.68;;;11.30;90.20;;;;;;5014748;28;20133;-83
2022/04/12 08:46:12;;;;;;;117.68;107.38;;;11.40;90.30;;;;;;4999763;28;20045;-84
2022/04/12 08:48:41;;;;;;;116.65;106.25;;;11.50;90.60;;;;;;5000268;28;20783;-84
2022/04/12 08:51:08;;;;;;;119.53;109.05;;;11.50;90.50;;;;;;5016672;28;20054;-85
2022/04/12 08:53:36;;;;;;;116.97;106.68;;;11.60;90.40;;;;;;5000574;28;20058;-84
2022/04/12 08:56:03;;;;;;;116.20;105.90;;;11.70;90.30;;;;;;5014226;28;20084;-84
2022/04/12 08:58:30;;;;;;;114.47;104.25;;;11.80;90.20;;;;;;4999575;28;20481;-84
2022/04/12 09:00:57;;;;;;;113.53;103.68;;;11.90;89.90;;;;;;5000243;28;20050;-84
2022/04/12 09:03:24;;;;;;;115.03;104.90;;;12.00;89.80;;;;;;5015823;28;20057;-84
2022/04/12 09:05:54;;;;;;;116.63;106.38;;;12.10;89.40;;;;;;4998054;28;20579;-84
2022/04/12 09:08:25;;;;;;;114.53;104.60;;;12.20;88.90;;;;;;5015819;28;20141;-84
2022/04/12 09:10:57;;;;;;;115.68;105.40;;;12.30;88.20;;;;;;5000020;28;20053;-84
2022/04/12 09:13:24;;;;;;;116.20;105.82;;;12.40;88.10;;;;;;5014716;28;20058;-84
2022/04/12 09:15:51;;;;;;;116.82;106.13;;;12.50;87.80;;;;;;5015818;28;20056;-84
2022/04/12 09:18:33;;;;;;;116.97;106.38;;;12.60;87.60;;;;;;5015182;28;20483;-85
2022/04/12 09:21:16;;;;;;;118.40;108.03;;;12.60;87.40;;;;;;5014202;28;20094;-84
2022/04/12 09:23:44;;;;;;;120.85;110.22;;;12.70;87.10;;;;;;4998789;28;20054;-84
2022/04/12 09:26:16;;;;;;;119.97;109.45;;;12.80;86.30;;;;;;4998735;28;20049;-84
2022/04/12 09:28:44;;;;;;;119.10;108.60;;;12.90;86.00;;;;;;5013654;28;20463;-84
2022/04/12 09:31:12;;;;;;;118.75;108.35;;;13.00;86.00;;;;;;4998835;28;20172;-85
2022/04/12 09:33:40;;;;;;;117.75;107.22;;;13.00;85.90;;;;;;4999866;28;20058;-84
2022/04/12 09:36:07;;;;;;;121.00;109.68;;;13.10;86.30;;;;;;5015947;28;20045;-85
2022/04/12 09:38:37;;;;;;;119.45;108.90;;;13.20;86.40;;;;;;5015183;28;20490;-83
2022/04/12 09:41:12;;;;;;;119.65;109.25;;;13.20;86.20;;;;;;4998343;28;20053;-83
2022/04/12 09:43:42;;;;;;;119.43;108.82;;;13.30;86.00;;;;;;4999186;28;20057;-80
2022/04/12 09:46:14;;;;;;;119.43;109.22;;;13.40;85.90;;;;;;4997766;28;20536;-82
2022/04/12 09:48:46;;;;;;;119.45;109.15;;;13.50;86.00;;;;;;5028678;28;20057;-81
2022/04/12 09:51:13;;;;;;;118.85;108.35;;;13.60;85.70;;;;;;4999234;28;20136;-84
2022/04/12 09:53:44;;;;;;;118.18;107.65;;;13.60;84.90;;;;;;5015313;28;20551;-81
2022/04/12 09:56:16;;;;;;;119.05;108.78;;;13.70;85.10;;;;;;4998558;28;20050;-82
2022/04/12 09:58:45;;;;;;;120.97;110.60;;;13.80;85.40;;;;;;5013060;28;20061;-84
2022/04/12 10:01:13;;;;;;;121.90;111.40;;;13.90;85.10;;;;;;4999044;28;20129;-83
2022/04/12 10:03:44;;;;;;;119.10;108.82;;;14.00;85.50;;;;;;5014865;28;20061;-79
2022/04/12 10:06:14;;;;;;;122.07;111.38;;;14.10;84.20;;;;;;4998028;28;20066;-84
2022/04/12 10:08:43;;;;;;;120.75;110.13;;;14.20;83.00;;;;;;5015326;28;20054;-83
2022/04/12 10:11:14;;;;;;;118.30;108.10;;;14.30;83.10;;;;;;5015326;28;20733;-83
2022/04/12 10:13:41;;;;;;;122.40;112.03;;;14.30;82.70;;;;;;4998308;28;20077;-83
2022/04/12 10:16:10;;;;;;;119.57;109.25;;;14.40;82.30;;;;;;4998342;28;20591;-84
2022/04/12 10:18:37;;;;;;;119.97;109.68;;;14.50;82.60;;;;;;5015338;28;20054;-84
2022/04/12 10:21:04;;;;;;;119.38;109.18;;;14.60;82.00;;;;;;5016023;28;20332;-83
2022/04/12 10:23:33;;;;;;;119.72;109.55;;;14.60;81.70;;;;;;5015121;28;20085;-84
2022/04/12 10:26:03;;;;;;;123.25;112.75;;;14.70;82.40;;;;;;5016400;28;20159;-84
2022/04/12 10:28:31;;;;;;;123.05;112.45;;;14.80;83.30;;;;;;5015828;28;20145;-83
2022/04/12 10:31:20;;;;;;;121.38;111.22;;;14.90;83.60;;;;;;4998337;28;20046;-84
2022/04/12 10:34:09;;;;;;;122.32;111.82;;;15.00;82.50;;;;;;5015269;28;20050;-84
2022/04/12 10:37:04;;;;;;;120.15;109.95;;;15.10;82.20;;;;;;5015848;28;20084;-84
2022/04/12 10:39:36;;;;;;;122.03;111.53;;;15.20;81.80;;;;;;4998721;28;20480;-84
2022/04/12 10:42:11;;;;;;;123.70;113.10;;;15.30;81.70;;;;;;5015018;28;20559;-84
2022/04/12 10:44:40;;;;;;;122.45;112.13;;;15.40;82.20;;;;;;4998361;28;20057;-84
2022/04/12 10:47:21;;;;;;;126.03;115.55;;;15.50;82.50;;;;;;4998154;28;20054;-84
2022/04/12 10:49:53;;;;;;;125.40;114.95;;;15.60;81.40;;;;;;5012032;28;20671;-85
2022/04/12 10:52:20;;;;;;;125.38;115.13;;;15.70;80.60;;;;;;4998671;28;20046;-84
2022/04/12 10:54:49;;;;;;;125.95;115.25;;;15.80;80.20;;;;;;4999085;28;20054;-84
2022/04/12 10:57:24;;;;;;;124.47;114.03;;;15.90;80.90;;;;;;4998831;28;20089;-84
2022/04/12 10:59:54;;;;;;;122.55;112.25;;;16.00;79.10;;;;;;4999501;28;20491;-84
2022/04/12 11:02:22;;;;;;;124.43;114.18;;;16.10;80.10;;;;;;4998680;28;20599;-85
2022/04/12 11:04:49;;;;;;;122.88;112.68;;;16.20;79.80;;;;;;5014576;28;20145;-84
2022/04/12 11:07:33;;;;;;;126.38;116.10;;;16.30;78.80;;;;;;5015242;28;20465;-83
2022/04/12 11:10:21;;;;;;;122.57;112.28;;;16.40;79.40;;;;;;5007109;28;20620;-84
2022/04/12 11:12:52;;;;;;;123.40;113.10;;;16.50;78.40;;;;;;5011546;28;20064;-82
2022/04/12 11:15:27;;;;;;;124.82;114.63;;;16.60;78.90;;;;;;5014907;28;20139;-82
2022/04/12 11:18:11;;;;;;;125.70;115.10;;;16.60;77.90;;;;;;5014801;28;20123;-84
2022/04/12 11:20:40;;;;;;;123.20;113.30;;;16.70;78.10;;;;;;4999187;28;20736;-82
2022/04/12 11:23:09;;;;;;;123.75;113.75;;;16.80;77.90;;;;;;4998413;28;20046;-83
2022/04/12 11:25:46;;;;;;;122.40;112.13;;;16.90;78.50;;;;;;4998880;28;20046;-84
2022/04/12 11:28:17;;;;;;;122.57;112.60;;;17.00;76.00;;;;;;5014861;28;20567;-84
2022/04/12 11:30:55;;;;;;;126.70;116.25;;;17.10;76.00;;;;;;5014877;28;20053;-85
2022/04/12 11:33:27;;;;;;;124.97;114.50;;;17.10;76.00;;;;;;5014547;28;20048;-83
2022/04/12 11:35:54;;;;;;;126.70;116.60;;;17.10;76.50;;;;;;5014399;28;20090;-83
2022/04/12 11:38:22;;;;;;;121.85;111.75;;;17.20;75.90;;;;;;4998386;28;20136;-83
2022/04/12 11:40:49;;;;;;;123.70;113.70;;;17.30;74.70;;;;;;5014883;28;20057;-82
2022/04/12 11:43:25;;;;;;;123.28;113.47;;;17.30;72.90;;;;;;5014623;28;20048;-83
2022/04/12 11:45:53;;;;;;;124.32;114.18;;;17.40;71.70;;;;;;4997331;28;20058;-84
2022/04/12 11:48:21;;;;;;;127.22;116.00;;;17.40;70.30;;;;;;5013876;28;20052;-82
2022/04/12 11:50:52;;;;;;;124.57;114.47;;;17.50;70.60;;;;;;4997418;28;20519;-83
2022/04/12 11:53:20;;;;;;;124.97;114.78;;;17.50;71.00;;;;;;4996784;28;20042;-86
2022/04/12 11:55:47;;;;;;;125.55;115.47;;;17.60;72.20;;;;;;5013987;28;20136;-85
2022/04/12 11:58:14;;;;;;;124.20;114.10;;;17.70;70.10;;;;;;4996947;28;20081;-84
2022/04/12 12:00:43;;;;;;;126.50;116.20;;;17.70;68.70;;;;;;4994734;28;20397;-84
2022/04/12 12:03:16;;;;;;;126.35;116.07;;;17.70;68.80;;;;;;5009292;28;20181;-84
2022/04/12 12:05:44;;;;;;;123.35;113.45;;;17.80;69.90;;;;;;5007602;28;20054;-82
2022/04/12 12:08:12;;;;;;;129.63;119.35;;;17.80;70.10;;;;;;5007582;28;20132;-85
2022/04/12 12:10:39;;;;;;;128.43;117.63;;;17.90;69.60;;;;;;5004478;28;20128;-85
2022/04/12 12:13:07;;;;;;;127.38;117.28;;;18.00;70.40;;;;;;5023148;28;20543;-82
2022/04/12 12:15:35;;;;;;;128.90;118.68;;;18.10;68.40;;;;;;5010902;28;20133;-84
2022/04/12 12:18:06;;;;;;;125.22;115.13;;;18.20;69.60;;;;;;5012754;28;20165;-81
2022/04/12 12:20:34;;;;;;;125.40;115.10;;;18.30;68.80;;;;;;4997526;28;20138;-80
2022/04/12 12:23:03;;;;;;;125.38;115.15;;;18.30;67.90;;;;;;5010494;28;20057;-81
2022/04/12 12:25:39;;;;;;;123.80;113.70;;;18.40;67.90;;;;;;5027309;28;20132;-83
2022/04/12 12:28:12;;;;;;;127.90;117.00;;;18.50;68.40;;;;;;4992324;28;20066;-87
2022/04/12 12:30:42;;;;;;;128.05;117.93;;;18.60;68.70;;;;;;4992246;28;20148;-89
2022/04/12 12:33:11;;;;;;;126.22;116.22;;;18.60;69.00;;;;;;4994206;28;20400;-80